createdAt,value
2018-12-25T00:01:01.138Z,1.83
2018-12-25T00:03:31.990Z,1.53
2018-12-25T00:06:02.790Z,1.47
2018-12-25T00:08:33.545Z,1.63
2018-12-25T00:11:04.308Z,2.50
2018-12-25T00:13:35.066Z,2.27
2018-12-25T00:16:05.838Z,2.60
2018-12-25T00:18:36.613Z,1.50
2018-12-25T00:21:07.393Z,1.53
2018-12-25T00:23:38.140Z,1.70
2018-12-25T00:26:08.905Z,2.27
2018-12-25T00:28:39.673Z,1.93
2018-12-25T00:31:10.467Z,1.63
2018-12-25T00:33:41.231Z,1.97
2018-12-25T00:36:12.012Z,2.73
2018-12-25T00:38:42.776Z,3.10
2018-12-25T00:41:13.554Z,2.13
2018-12-25T00:43:44.316Z,2.43
2018-12-25T00:46:15.093Z,2.40
2018-12-25T00:48:45.923Z,2.57
2018-12-25T00:51:16.651Z,2.50
2018-12-25T00:53:47.423Z,2.50
2018-12-25T00:56:18.192Z,2.93
2018-12-25T00:58:48.950Z,2.43
2018-12-25T01:01:19.727Z,3.20
2018-12-25T01:03:50.494Z,2.60
2018-12-25T01:06:21.278Z,3.50
2018-12-25T01:08:52.043Z,2.97
2018-12-25T01:11:22.813Z,3.00
2018-12-25T01:13:53.569Z,3.30
2018-12-25T01:16:24.391Z,4.23
2018-12-25T01:18:55.154Z,3.80
2018-12-25T01:21:25.930Z,3.63
2018-12-25T01:23:56.688Z,3.43
2018-12-25T01:26:27.478Z,4.20
2018-12-25T01:28:58.263Z,3.50
2018-12-25T01:31:29.024Z,3.57
2018-12-25T01:33:59.790Z,4.60
2018-12-25T01:36:30.551Z,3.73
2018-12-25T01:39:01.438Z,4.70
2018-12-25T01:41:32.214Z,4.40
2018-12-25T01:44:03.027Z,4.17
2018-12-25T01:46:33.788Z,4.20
2018-12-25T01:49:04.547Z,3.87
2018-12-25T01:51:35.297Z,3.47
2018-12-25T01:54:06.067Z,3.60
2018-12-25T01:56:36.833Z,3.40
2018-12-25T01:59:07.603Z,3.40
2018-12-25T02:01:38.402Z,4.03
2018-12-25T02:04:09.180Z,3.80
2018-12-25T02:06:39.933Z,3.63
2018-12-25T02:09:10.723Z,4.23
2018-12-25T02:11:41.474Z,5.13
2018-12-25T02:14:12.237Z,3.80
2018-12-25T02:16:43.031Z,4.20
2018-12-25T02:19:13.797Z,3.50
2018-12-25T02:21:44.566Z,4.20
2018-12-25T02:24:15.531Z,3.90
2018-12-25T02:26:46.285Z,4.23
2018-12-25T02:29:17.060Z,4.63
2018-12-25T02:31:47.817Z,5.17
2018-12-25T02:34:18.614Z,4.77
2018-12-25T02:36:49.370Z,4.00
2018-12-25T02:39:20.144Z,4.97
2018-12-25T02:41:50.908Z,7.37
2018-12-25T02:44:21.691Z,4.93
2018-12-25T02:46:52.460Z,4.60
2018-12-25T02:49:23.231Z,4.50
2018-12-25T02:51:54.001Z,6.07
2018-12-25T02:54:26.720Z,3.53
2018-12-25T02:56:57.435Z,5.60
2018-12-25T02:59:28.208Z,4.13
2018-12-25T03:01:58.972Z,3.63
2018-12-25T03:04:29.742Z,4.43
2018-12-25T03:07:00.510Z,4.27
2018-12-25T03:09:31.305Z,5.37
2018-12-25T03:12:02.180Z,5.20
2018-12-25T03:14:32.963Z,5.33
2018-12-25T03:17:03.764Z,5.13
2018-12-25T03:19:34.668Z,5.07
2018-12-25T03:22:05.418Z,5.23
2018-12-25T03:24:36.190Z,4.97
2018-12-25T03:27:06.955Z,6.10
2018-12-25T03:29:37.822Z,5.33
2018-12-25T03:32:08.591Z,5.37
2018-12-25T03:34:39.357Z,6.37
2018-12-25T03:37:10.114Z,4.40
2018-12-25T03:39:40.889Z,4.33
2018-12-25T03:42:11.671Z,5.80
2018-12-25T03:44:42.451Z,7.03
2018-12-25T03:47:13.308Z,4.80
2018-12-25T03:49:44.083Z,5.00
2018-12-25T03:52:14.882Z,5.67
2018-12-25T03:54:45.652Z,4.97
2018-12-25T03:57:16.416Z,5.93
2018-12-25T03:59:47.284Z,5.47
2018-12-25T04:02:18.040Z,6.53
2018-12-25T04:04:48.814Z,7.20
2018-12-25T04:07:19.616Z,4.73
2018-12-25T04:09:50.425Z,5.20
2018-12-25T04:12:21.208Z,5.60
2018-12-25T04:14:51.981Z,5.10
2018-12-25T04:17:22.852Z,6.40
2018-12-25T04:19:53.623Z,5.30
2018-12-25T04:22:24.380Z,6.60
2018-12-25T04:24:55.160Z,5.17
2018-12-25T04:27:25.953Z,6.20
2018-12-25T04:29:56.763Z,5.93
2018-12-25T04:32:27.542Z,6.70
2018-12-25T04:34:58.401Z,5.33
2018-12-25T04:37:29.150Z,5.70
2018-12-25T04:39:59.924Z,5.97
2018-12-25T04:42:30.695Z,5.50
2018-12-25T04:45:01.453Z,6.67
2018-12-25T04:47:32.225Z,7.67
2018-12-25T04:50:04.337Z,6.07
2018-12-25T04:52:35.158Z,5.83
2018-12-25T04:55:05.901Z,6.13
2018-12-25T04:57:36.735Z,7.87
2018-12-25T05:00:07.503Z,7.63
2018-12-25T05:02:38.279Z,5.43
2018-12-25T05:05:09.040Z,5.90
2018-12-25T05:07:39.810Z,7.00
2018-12-25T05:10:10.562Z,6.53
2018-12-25T05:12:41.344Z,6.50
2018-12-25T05:15:12.097Z,4.60
2018-12-25T05:17:42.890Z,5.63
2018-12-25T05:20:13.666Z,6.03
2018-12-25T05:22:44.433Z,7.20
2018-12-25T05:25:15.208Z,6.00
2018-12-25T05:27:45.980Z,6.53
2018-12-25T05:30:16.743Z,5.83
2018-12-25T05:32:47.522Z,7.67
2018-12-25T05:35:18.340Z,6.80
2018-12-25T05:37:52.391Z,6.43
2018-12-25T05:40:23.157Z,7.55
2018-12-25T05:42:53.948Z,6.00
2018-12-25T05:45:24.704Z,7.63
2018-12-25T05:47:55.475Z,5.67
2018-12-25T05:50:26.244Z,6.47
2018-12-25T05:52:57.078Z,6.07
2018-12-25T05:55:27.854Z,6.60
2018-12-25T05:57:58.638Z,6.53
2018-12-25T06:00:29.400Z,6.67
2018-12-25T06:03:00.171Z,6.17
2018-12-25T06:05:31.032Z,7.70
2018-12-25T06:08:01.810Z,6.80
2018-12-25T06:10:32.565Z,6.50
2018-12-25T06:13:03.661Z,6.83
2018-12-25T06:15:34.416Z,9.20
2018-12-25T06:18:05.213Z,7.73
2018-12-25T06:20:35.963Z,5.97
2018-12-25T06:23:06.807Z,7.17
2018-12-25T06:25:37.575Z,7.07
2018-12-25T06:28:08.341Z,6.73
2018-12-25T06:30:39.113Z,8.20
2018-12-25T06:33:09.889Z,6.77
2018-12-25T06:35:40.639Z,9.23
2018-12-25T06:38:11.404Z,6.80
2018-12-25T06:40:42.170Z,8.73
2018-12-25T06:43:13.000Z,7.27
2018-12-25T06:45:43.767Z,7.30
2018-12-25T06:48:14.556Z,7.07
2018-12-25T06:50:45.316Z,7.93
2018-12-25T06:53:16.083Z,7.07
2018-12-25T06:55:46.840Z,8.37
2018-12-25T06:58:17.616Z,7.20
2018-12-25T07:00:48.407Z,8.40
2018-12-25T07:03:19.197Z,6.67
2018-12-25T07:05:49.954Z,6.70
2018-12-25T07:08:20.738Z,8.37
2018-12-25T07:10:51.491Z,7.37
2018-12-25T07:13:22.256Z,6.63
2018-12-25T07:15:53.019Z,6.93
2018-12-25T07:18:23.788Z,8.87
2018-12-25T07:20:54.544Z,6.53
2018-12-25T07:23:25.298Z,6.83
2018-12-25T07:25:56.053Z,7.00
2018-12-25T07:28:26.824Z,8.43
2018-12-25T07:30:57.595Z,5.83
2018-12-25T07:33:28.484Z,7.20
2018-12-25T07:35:59.238Z,8.03
2018-12-25T07:38:30.000Z,10.07
2018-12-25T07:41:00.777Z,6.77
2018-12-25T07:43:31.550Z,6.27
2018-12-25T07:46:02.315Z,5.90
2018-12-25T07:48:33.065Z,7.17
2018-12-25T07:51:03.936Z,7.10
2018-12-25T07:53:34.763Z,7.10
2018-12-25T07:56:05.533Z,5.90
2018-12-25T07:58:36.299Z,5.80
2018-12-25T08:01:07.055Z,7.60
2018-12-25T08:03:37.844Z,6.83
2018-12-25T08:06:08.581Z,7.73
2018-12-25T08:08:39.371Z,5.63
2018-12-25T08:11:10.131Z,6.97
2018-12-25T08:13:40.905Z,8.10
2018-12-25T08:16:12.090Z,8.13
2018-12-25T08:18:42.855Z,6.33
2018-12-25T08:21:13.974Z,7.73
2018-12-25T08:23:44.732Z,6.83
2018-12-25T08:26:15.501Z,5.77
2018-12-25T08:28:46.266Z,12.63
2018-12-25T08:31:17.028Z,5.40
2018-12-25T08:33:47.815Z,5.63
2018-12-25T08:36:18.584Z,6.00
2018-12-25T08:38:49.349Z,6.40
2018-12-25T08:41:20.133Z,5.87
2018-12-25T08:43:50.892Z,4.77
2018-12-25T08:46:21.650Z,6.43
2018-12-25T08:48:52.447Z,5.60
2018-12-25T08:51:23.227Z,5.13
2018-12-25T08:53:53.997Z,5.63
2018-12-25T08:56:24.762Z,6.10
2018-12-25T08:58:55.521Z,5.93
2018-12-25T09:01:26.307Z,5.67
2018-12-25T09:03:57.111Z,4.77
2018-12-25T09:06:27.845Z,5.33
2018-12-25T09:08:58.727Z,5.03
2018-12-25T09:11:29.498Z,6.20
2018-12-25T09:14:00.254Z,5.43
2018-12-25T09:16:31.040Z,4.87
2018-12-25T09:19:01.824Z,4.97
2018-12-25T09:21:32.601Z,5.87
2018-12-25T09:24:03.370Z,4.67
2018-12-25T09:26:34.172Z,3.73
2018-12-25T09:29:04.937Z,5.07
2018-12-25T09:31:35.739Z,5.13
2018-12-25T09:34:06.511Z,4.40
2018-12-25T09:36:37.311Z,5.83
2018-12-25T09:39:08.136Z,4.00
2018-12-25T09:41:38.921Z,4.00
2018-12-25T09:44:09.669Z,4.60
2018-12-25T09:46:40.474Z,4.10
2018-12-25T09:49:11.256Z,4.30
2018-12-25T09:51:43.083Z,4.93
2018-12-25T09:54:13.871Z,3.55
2018-12-25T09:56:44.675Z,4.37
2018-12-25T09:59:15.453Z,3.50
2018-12-25T10:01:46.222Z,4.07
2018-12-25T10:04:16.995Z,4.50
2018-12-25T10:06:47.760Z,4.30
2018-12-25T10:09:18.540Z,4.30
2018-12-25T10:11:49.303Z,5.13
2018-12-25T10:14:20.091Z,3.60
2018-12-25T10:16:50.859Z,3.37
2018-12-25T10:19:21.950Z,3.90
2018-12-25T10:21:52.738Z,3.70
2018-12-25T10:24:23.519Z,4.30
2018-12-25T10:26:54.272Z,3.80
2018-12-25T10:29:25.042Z,4.30
2018-12-25T10:31:55.859Z,5.47
2018-12-25T10:34:26.898Z,3.97
2018-12-25T10:36:57.667Z,4.15
2018-12-25T10:39:28.436Z,4.27
2018-12-25T10:41:59.192Z,3.53
2018-12-25T10:44:29.973Z,4.90
2018-12-25T10:47:00.887Z,7.20
2018-12-25T10:49:31.653Z,4.47
2018-12-25T10:52:02.402Z,3.70
2018-12-25T10:54:33.170Z,6.93
2018-12-25T10:57:03.937Z,3.53
2018-12-25T10:59:34.806Z,5.03
2018-12-25T11:02:05.591Z,3.57
2018-12-25T11:04:36.363Z,5.00
2018-12-25T11:07:07.211Z,5.07
2018-12-25T11:09:37.997Z,6.27
2018-12-25T11:12:08.784Z,4.17
2018-12-25T11:14:39.949Z,3.53
2018-12-25T11:17:10.715Z,3.25
2018-12-25T11:19:41.489Z,3.50
2018-12-25T11:22:19.678Z,3.80
2018-12-25T11:24:45.013Z,4.03
2018-12-25T11:27:15.847Z,3.93
2018-12-25T11:29:46.623Z,3.07
2018-12-25T11:32:17.419Z,3.67
2018-12-25T11:34:48.208Z,3.00
2018-12-25T11:37:18.972Z,4.07
2018-12-25T11:39:49.831Z,3.60
2018-12-25T11:42:20.606Z,3.47
2018-12-25T11:44:51.412Z,6.70
2018-12-25T11:47:22.188Z,2.90
2018-12-25T11:49:53.002Z,2.63
2018-12-25T11:52:28.556Z,2.87
2018-12-25T11:54:58.445Z,3.12
2018-12-25T11:57:29.298Z,3.97
2018-12-25T12:00:00.100Z,3.43
2018-12-25T12:02:30.866Z,3.87
2018-12-25T12:05:01.662Z,3.07
2018-12-25T12:07:32.419Z,3.03
2018-12-25T12:10:06.617Z,3.63
2018-12-25T12:12:37.390Z,3.45
2018-12-25T12:15:08.149Z,3.60
2018-12-25T12:17:38.941Z,4.63
2018-12-25T12:20:09.728Z,4.10
2018-12-25T12:22:40.511Z,3.33
2018-12-25T12:25:11.267Z,2.83
2018-12-25T12:27:42.063Z,2.57
2018-12-25T12:30:12.832Z,5.87
2018-12-25T12:32:43.604Z,3.50
2018-12-25T12:35:14.410Z,5.23
2018-12-25T12:37:46.332Z,5.20
2018-12-25T12:40:17.105Z,3.65
2018-12-25T12:42:47.890Z,3.00
2018-12-25T12:45:18.651Z,3.90
2018-12-25T12:47:50.428Z,3.10
2018-12-25T12:50:21.195Z,2.80
2018-12-25T12:52:51.961Z,3.20
2018-12-25T12:55:22.727Z,3.93
2018-12-25T12:57:53.498Z,3.30
2018-12-25T13:00:24.279Z,3.80
2018-12-25T13:02:56.054Z,2.70
2018-12-25T13:05:26.826Z,2.83
2018-12-25T13:07:57.621Z,3.40
2018-12-25T13:10:28.387Z,3.13
2018-12-25T13:12:59.168Z,4.33
2018-12-25T13:15:29.956Z,3.03
2018-12-25T13:18:00.734Z,3.70
2018-12-25T13:20:31.499Z,3.70
2018-12-25T13:23:03.280Z,2.97
2018-12-25T13:25:34.052Z,2.83
2018-12-25T13:28:04.825Z,4.27
2018-12-25T13:30:35.589Z,2.90
2018-12-25T13:33:06.367Z,3.23
2018-12-25T13:35:37.935Z,3.60
2018-12-25T13:38:08.711Z,3.20
2018-12-25T13:40:40.514Z,3.23
2018-12-25T13:43:11.297Z,3.10
2018-12-25T13:45:42.059Z,4.23
2018-12-25T13:48:12.874Z,3.57
2018-12-25T13:50:43.633Z,2.87
2018-12-25T13:53:14.388Z,3.27
2018-12-25T13:55:46.267Z,4.40
2018-12-25T13:58:17.036Z,2.80
2018-12-25T14:00:47.820Z,3.03
2018-12-25T14:03:18.775Z,3.53
2018-12-25T14:05:49.544Z,3.00
2018-12-25T14:08:20.335Z,2.60
2018-12-25T14:10:51.100Z,3.37
2018-12-25T14:13:22.920Z,2.80
2018-12-25T14:15:54.797Z,2.55
2018-12-25T14:18:26.679Z,2.58
2018-12-25T14:20:57.453Z,3.35
2018-12-25T14:23:28.227Z,2.37
2018-12-25T14:25:58.989Z,6.80
2018-12-25T14:28:29.757Z,2.93
2018-12-25T14:31:00.532Z,3.53
2018-12-25T14:33:31.296Z,4.33
2018-12-25T14:36:02.075Z,3.27
2018-12-25T14:38:32.833Z,2.17
2018-12-25T14:41:03.592Z,3.60
2018-12-25T14:43:34.341Z,3.10
2018-12-25T14:46:06.115Z,2.60
2018-12-25T14:48:36.882Z,3.20
2018-12-25T14:51:07.659Z,4.93
2018-12-25T14:53:38.410Z,5.40
2018-12-25T14:56:09.186Z,2.17
2018-12-25T14:58:41.062Z,2.27
2018-12-25T15:01:13.843Z,2.42
2018-12-25T15:03:44.616Z,3.17
2018-12-25T15:06:15.399Z,4.00
2018-12-25T15:08:46.181Z,2.23
2018-12-25T15:11:16.970Z,3.73
2018-12-25T15:13:47.733Z,2.43
2018-12-25T15:16:18.568Z,2.40
2018-12-25T15:18:49.330Z,2.87
2018-12-25T15:21:20.099Z,3.30
2018-12-25T15:23:50.860Z,2.50
2018-12-25T15:26:21.627Z,2.73
2018-12-25T15:28:52.401Z,2.50
2018-12-25T15:31:23.175Z,2.70
2018-12-25T15:33:53.940Z,6.27
2018-12-25T15:36:24.720Z,3.43
2018-12-25T15:38:55.483Z,2.50
2018-12-25T15:41:26.253Z,2.63
2018-12-25T15:43:57.022Z,3.27
2018-12-25T15:46:27.810Z,2.50
2018-12-25T15:48:58.584Z,1.93
2018-12-25T15:51:29.353Z,2.23
2018-12-25T15:54:00.161Z,2.93
2018-12-25T15:56:31.033Z,3.03
2018-12-25T15:59:01.789Z,2.57
2018-12-25T16:01:32.573Z,2.60
2018-12-25T16:04:03.330Z,4.70
2018-12-25T16:06:34.113Z,3.47
2018-12-25T16:09:05.284Z,2.40
2018-12-25T16:11:36.065Z,2.90
2018-12-25T16:14:06.855Z,3.00
2018-12-25T16:16:37.602Z,3.40
2018-12-25T16:19:08.444Z,3.10
2018-12-25T16:21:39.227Z,2.60
2018-12-25T16:24:09.992Z,4.60
2018-12-25T16:26:40.773Z,3.20
2018-12-25T16:29:11.551Z,4.53
2018-12-25T16:31:42.368Z,3.97
2018-12-25T16:34:13.562Z,3.07
2018-12-25T16:36:44.396Z,2.98
2018-12-25T16:39:15.169Z,2.90
2018-12-25T16:41:45.925Z,3.37
2018-12-25T16:44:16.707Z,4.30
2018-12-25T16:46:47.474Z,3.60
2018-12-25T16:49:18.257Z,3.40
2018-12-25T16:51:49.015Z,3.63
2018-12-25T16:54:19.798Z,3.07
2018-12-25T16:56:50.577Z,3.30
2018-12-25T16:59:21.363Z,8.57
2018-12-25T17:01:52.127Z,3.37
2018-12-25T17:04:22.900Z,3.43
2018-12-25T17:06:53.667Z,4.10
2018-12-25T17:09:24.781Z,4.03
2018-12-25T17:11:55.543Z,4.35
2018-12-25T17:14:26.313Z,4.73
2018-12-25T17:16:57.071Z,4.30
2018-12-25T17:19:27.867Z,4.20
2018-12-25T17:21:58.629Z,3.60
2018-12-25T17:24:29.389Z,4.97
2018-12-25T17:27:00.141Z,3.50
2018-12-25T17:29:30.924Z,3.83
2018-12-25T17:32:01.712Z,3.77
2018-12-25T17:34:32.496Z,3.53
2018-12-25T17:37:03.247Z,3.43
2018-12-25T17:39:34.024Z,3.90
2018-12-25T17:42:04.794Z,3.57
2018-12-25T17:44:35.563Z,3.90
2018-12-25T17:47:06.330Z,4.00
2018-12-25T17:49:37.117Z,3.87
2018-12-25T17:52:07.866Z,4.23
2018-12-25T17:54:38.660Z,5.37
2018-12-25T17:57:09.415Z,5.17
2018-12-25T17:59:40.176Z,4.70
2018-12-25T18:02:10.935Z,7.80
2018-12-25T18:04:41.706Z,5.90
2018-12-25T18:07:12.485Z,4.80
2018-12-25T18:09:43.251Z,6.23
2018-12-25T18:12:14.012Z,6.83
2018-12-25T18:14:44.811Z,5.30
2018-12-25T18:17:18.975Z,5.87
2018-12-25T18:19:48.259Z,7.03
2018-12-25T18:22:19.022Z,10.13
2018-12-25T18:24:49.799Z,8.80
2018-12-25T18:27:20.562Z,4.70
2018-12-25T18:29:52.354Z,5.53
2018-12-25T18:32:23.113Z,6.65
2018-12-25T18:34:53.886Z,6.23
2018-12-25T18:37:24.641Z,7.20
2018-12-25T18:39:55.437Z,5.73
2018-12-25T18:42:26.194Z,8.07
2018-12-25T18:45:11.888Z,6.90
2018-12-25T18:47:43.096Z,6.00
2018-12-25T18:50:13.846Z,5.87
2018-12-25T18:52:44.605Z,6.40
2018-12-25T18:55:15.375Z,4.90
2018-12-25T18:57:46.138Z,5.00
2018-12-25T19:00:16.910Z,4.67
2018-12-25T19:02:47.689Z,6.50
2018-12-25T19:05:18.467Z,5.20
2018-12-25T19:07:49.250Z,5.30
2018-12-25T19:10:20.035Z,8.13
2018-12-25T19:12:50.795Z,6.80
2018-12-25T19:15:22.176Z,5.27
2018-12-25T19:17:52.960Z,5.60
2018-12-25T19:20:23.748Z,5.30
2018-12-25T19:22:54.502Z,5.50
2018-12-25T19:25:25.281Z,4.87
2018-12-25T19:27:56.053Z,5.30
2018-12-25T19:30:26.849Z,6.20
2018-12-25T19:32:57.612Z,5.53
2018-12-25T19:35:28.401Z,5.37
2018-12-25T19:37:59.153Z,4.80
2018-12-25T19:40:29.930Z,5.07
2018-12-25T19:43:00.716Z,9.60
2018-12-25T19:45:31.493Z,5.83
2018-12-25T19:48:02.265Z,4.90
2018-12-25T19:50:33.035Z,4.90
2018-12-25T19:53:03.795Z,7.50
2018-12-25T19:55:34.603Z,6.27
2018-12-25T19:58:05.368Z,5.53
2018-12-25T20:00:36.147Z,5.43
2018-12-25T20:03:07.019Z,4.47
2018-12-25T20:06:09.288Z,5.53
2018-12-25T20:08:56.120Z,5.37
2018-12-25T20:11:36.276Z,5.50
2018-12-25T20:14:13.348Z,5.90
2018-12-25T20:17:06.074Z,4.53
2018-12-25T20:19:59.085Z,3.90
2018-12-25T20:22:48.997Z,5.20
2018-12-25T20:25:35.438Z,7.40
2018-12-25T20:28:22.018Z,7.20
2018-12-25T20:31:28.767Z,6.30
2018-12-25T20:34:03.368Z,6.42
2018-12-25T20:36:54.980Z,5.50
2018-12-25T20:39:46.348Z,5.70
2018-12-25T20:42:23.940Z,5.87
2018-12-25T20:45:18.349Z,6.83
2018-12-25T20:48:09.791Z,6.15
2018-12-25T20:51:08.503Z,5.58
2018-12-25T20:53:54.851Z,5.58
2018-12-25T20:56:35.470Z,5.28
2018-12-25T20:59:22.282Z,5.85
2018-12-25T21:02:19.335Z,6.33
2018-12-25T21:05:26.447Z,5.50
2018-12-25T21:08:01.088Z,5.83
2018-12-25T21:10:53.778Z,7.17
2018-12-25T21:13:40.572Z,5.28
2018-12-25T21:16:23.907Z,5.75
2018-12-25T21:19:14.823Z,6.83
2018-12-25T21:21:49.399Z,7.12
2018-12-25T21:24:39.376Z,6.55
2018-12-25T21:27:27.962Z,7.55
2018-12-25T21:29:59.439Z,8.30
2018-12-25T21:32:31.715Z,7.35
2018-12-25T21:35:15.475Z,5.25
2018-12-25T21:37:46.539Z,6.72
2018-12-25T21:40:17.317Z,7.12
2018-12-25T21:42:49.076Z,5.70
2018-12-25T21:45:19.855Z,5.40
2018-12-25T21:47:50.614Z,5.37
2018-12-25T21:50:21.682Z,5.43
2018-12-25T21:52:52.434Z,7.15
2018-12-25T21:55:23.295Z,8.03
2018-12-25T21:57:54.188Z,6.03
2018-12-25T22:00:25.078Z,6.77
2018-12-25T22:02:55.811Z,6.50
2018-12-25T22:05:27.110Z,7.67
2018-12-25T22:07:57.836Z,5.50
2018-12-25T22:10:28.607Z,5.90
2018-12-25T22:12:59.374Z,6.37
2018-12-25T22:15:30.154Z,5.90
2018-12-25T22:18:00.932Z,6.90
2018-12-25T22:20:31.724Z,5.90
2018-12-25T22:23:02.504Z,6.10
2018-12-25T22:25:33.279Z,5.23
2018-12-25T22:28:04.018Z,6.23
2018-12-25T22:30:34.786Z,6.00
2018-12-25T22:33:05.573Z,8.33
2018-12-25T22:35:36.344Z,6.53
2018-12-25T22:38:07.098Z,7.37
2018-12-25T22:40:37.876Z,14.93
2018-12-25T22:43:08.653Z,4.70
2018-12-25T22:45:39.493Z,5.67
2018-12-25T22:48:10.287Z,5.50
2018-12-25T22:50:41.114Z,5.40
2018-12-25T22:53:11.844Z,6.63
2018-12-25T22:55:42.601Z,7.50
2018-12-25T22:58:13.369Z,8.27
2018-12-25T23:00:44.135Z,6.50
2018-12-25T23:03:14.909Z,9.70
2018-12-25T23:05:45.676Z,4.70
2018-12-25T23:08:16.550Z,5.77
2018-12-25T23:10:47.305Z,5.80
2018-12-25T23:13:18.103Z,5.73
2018-12-25T23:15:48.860Z,5.37
2018-12-25T23:18:19.642Z,5.23
2018-12-25T23:20:50.406Z,5.23
2018-12-25T23:23:21.167Z,6.07
2018-12-25T23:25:51.935Z,6.23
2018-12-25T23:28:22.729Z,5.67
2018-12-25T23:30:53.514Z,6.07
2018-12-25T23:33:24.321Z,6.63
2018-12-25T23:35:55.217Z,7.03
2018-12-25T23:38:25.965Z,6.67
2018-12-25T23:40:56.730Z,7.67
2018-12-25T23:43:27.609Z,7.73
2018-12-25T23:45:58.370Z,9.47
2018-12-25T23:48:29.157Z,10.07
2018-12-25T23:50:59.908Z,10.47
2018-12-25T23:53:31.024Z,9.80
2018-12-25T23:56:01.805Z,10.82
2018-12-25T23:58:32.642Z,10.50
